sensor_id;sensor_type;location;lat;lon;timestamp;P1;durP1;ratioP1;P2;durP2;ratioP2
60436;SDS011;46289;51.992;4.498;2023-04-02T00:01:25;23.40;;;10.15;;
60436;SDS011;46289;51.992;4.498;2023-04-02T00:06:26;19.10;;;9.05;;
60436;SDS011;46289;51.992;4.498;2023-04-02T00:08:41;20.15;;;9.13;;
60436;SDS011;46289;51.992;4.498;2023-04-02T00:10:49;22.63;;;9.25;;
60436;SDS011;46289;51.992;4.498;2023-04-02T00:12:59;17.77;;;9.65;;
60436;SDS011;46289;51.992;4.498;2023-04-02T00:15:10;19.60;;;9.10;;
60436;SDS011;46289;51.992;4.498;2023-04-02T00:17:19;17.38;;;9.00;;
60436;SDS011;46289;51.992;4.498;2023-04-02T00:19:28;20.48;;;9.57;;
60436;SDS011;46289;51.992;4.498;2023-04-02T00:21:40;19.88;;;9.93;;
60436;SDS011;46289;51.992;4.498;2023-04-02T00:23:52;20.38;;;9.27;;
60436;SDS011;46289;51.992;4.498;2023-04-02T00:26:00;18.98;;;9.65;;
60436;SDS011;46289;51.992;4.498;2023-04-02T00:28:05;21.40;;;9.10;;
60436;SDS011;46289;51.992;4.498;2023-04-02T00:30:11;17.40;;;8.25;;
60436;SDS011;46289;51.992;4.498;2023-04-02T00:32:20;16.80;;;9.75;;
60436;SDS011;46289;51.992;4.498;2023-04-02T00:34:29;20.95;;;9.52;;
60436;SDS011;46289;51.992;4.498;2023-04-02T00:36:37;18.60;;;10.60;;
60436;SDS011;46289;51.992;4.498;2023-04-02T00:38:42;19.48;;;10.13;;
60436;SDS011;46289;51.992;4.498;2023-04-02T00:40:49;20.73;;;9.75;;
60436;SDS011;46289;51.992;4.498;2023-04-02T00:42:58;20.90;;;9.38;;
60436;SDS011;46289;51.992;4.498;2023-04-02T00:45:06;21.00;;;9.75;;
60436;SDS011;46289;51.992;4.498;2023-04-02T00:47:22;21.88;;;9.20;;
60436;SDS011;46289;51.992;4.498;2023-04-02T00:49:34;18.42;;;9.73;;
60436;SDS011;46289;51.992;4.498;2023-04-02T00:51:40;20.35;;;9.50;;
60436;SDS011;46289;51.992;4.498;2023-04-02T00:53:51;20.10;;;10.57;;
60436;SDS011;46289;51.992;4.498;2023-04-02T00:55:58;18.48;;;9.88;;
60436;SDS011;46289;51.992;4.498;2023-04-02T00:58:10;20.33;;;9.80;;
60436;SDS011;46289;51.992;4.498;2023-04-02T01:00:21;21.05;;;9.40;;
60436;SDS011;46289;51.992;4.498;2023-04-02T01:02:30;14.75;;;8.25;;
60436;SDS011;46289;51.992;4.498;2023-04-02T01:04:39;17.80;;;8.60;;
60436;SDS011;46289;51.992;4.498;2023-04-02T01:06:45;15.85;;;9.05;;
60436;SDS011;46289;51.992;4.498;2023-04-02T01:09:06;18.52;;;8.88;;
60436;SDS011;46289;51.992;4.498;2023-04-02T01:11:24;19.83;;;8.90;;
60436;SDS011;46289;51.992;4.498;2023-04-02T01:13:44;18.50;;;8.90;;
60436;SDS011;46289;51.992;4.498;2023-04-02T01:16:01;15.63;;;7.85;;
60436;SDS011;46289;51.992;4.498;2023-04-02T01:18:18;18.65;;;9.55;;
60436;SDS011;46289;51.992;4.498;2023-04-02T01:23:06;19.38;;;9.32;;
60436;SDS011;46289;51.992;4.498;2023-04-02T01:25:18;16.17;;;9.10;;
60436;SDS011;46289;51.992;4.498;2023-04-02T01:27:31;17.73;;;7.97;;
60436;SDS011;46289;51.992;4.498;2023-04-02T01:29:45;16.95;;;8.25;;
60436;SDS011;46289;51.992;4.498;2023-04-02T01:31:52;19.38;;;9.55;;
60436;SDS011;46289;51.992;4.498;2023-04-02T01:34:01;19.60;;;8.30;;
60436;SDS011;46289;51.992;4.498;2023-04-02T01:36:10;17.65;;;8.95;;
60436;SDS011;46289;51.992;4.498;2023-04-02T01:38:22;13.20;;;7.63;;
60436;SDS011;46289;51.992;4.498;2023-04-02T01:40:34;16.42;;;8.40;;
60436;SDS011;46289;51.992;4.498;2023-04-02T01:42:46;14.20;;;8.38;;
60436;SDS011;46289;51.992;4.498;2023-04-02T01:45:02;17.98;;;9.15;;
60436;SDS011;46289;51.992;4.498;2023-04-02T01:47:11;16.20;;;8.90;;
60436;SDS011;46289;51.992;4.498;2023-04-02T01:49:18;19.00;;;9.05;;
60436;SDS011;46289;51.992;4.498;2023-04-02T01:51:26;18.83;;;8.02;;
60436;SDS011;46289;51.992;4.498;2023-04-02T01:53:33;15.65;;;8.75;;
60436;SDS011;46289;51.992;4.498;2023-04-02T01:55:39;15.55;;;8.65;;
60436;SDS011;46289;51.992;4.498;2023-04-02T01:57:47;19.52;;;8.80;;
60436;SDS011;46289;51.992;4.498;2023-04-02T01:59:59;15.55;;;7.50;;
60436;SDS011;46289;51.992;4.498;2023-04-02T02:02:14;17.00;;;7.57;;
60436;SDS011;46289;51.992;4.498;2023-04-02T02:04:20;18.67;;;8.95;;
60436;SDS011;46289;51.992;4.498;2023-04-02T02:06:25;18.08;;;8.27;;
60436;SDS011;46289;51.992;4.498;2023-04-02T02:08:32;13.65;;;7.32;;
60436;SDS011;46289;51.992;4.498;2023-04-02T02:10:45;14.65;;;7.88;;
60436;SDS011;46289;51.992;4.498;2023-04-02T02:12:52;16.40;;;6.68;;
60436;SDS011;46289;51.992;4.498;2023-04-02T02:15:03;11.90;;;6.93;;
60436;SDS011;46289;51.992;4.498;2023-04-02T02:17:17;17.95;;;7.65;;
60436;SDS011;46289;51.992;4.498;2023-04-02T02:19:27;13.07;;;7.70;;
60436;SDS011;46289;51.992;4.498;2023-04-02T02:21:37;16.08;;;8.15;;
60436;SDS011;46289;51.992;4.498;2023-04-02T02:23:45;16.52;;;7.38;;
60436;SDS011;46289;51.992;4.498;2023-04-02T02:25:50;15.85;;;7.35;;
60436;SDS011;46289;51.992;4.498;2023-04-02T02:27:58;16.27;;;7.32;;
60436;SDS011;46289;51.992;4.498;2023-04-02T02:30:11;13.23;;;7.22;;
60436;SDS011;46289;51.992;4.498;2023-04-02T02:32:21;14.63;;;6.80;;
60436;SDS011;46289;51.992;4.498;2023-04-02T02:34:30;12.65;;;7.13;;
60436;SDS011;46289;51.992;4.498;2023-04-02T02:36:42;13.35;;;5.68;;
60436;SDS011;46289;51.992;4.498;2023-04-02T02:38:52;15.95;;;7.47;;
60436;SDS011;46289;51.992;4.498;2023-04-02T02:41:02;13.02;;;6.45;;
60436;SDS011;46289;51.992;4.498;2023-04-02T02:43:11;12.85;;;6.43;;
60436;SDS011;46289;51.992;4.498;2023-04-02T02:45:21;12.68;;;6.90;;
60436;SDS011;46289;51.992;4.498;2023-04-02T02:47:32;16.35;;;7.32;;
60436;SDS011;46289;51.992;4.498;2023-04-02T02:49:39;14.32;;;7.13;;
60436;SDS011;46289;51.992;4.498;2023-04-02T02:51:47;13.60;;;6.85;;
60436;SDS011;46289;51.992;4.498;2023-04-02T02:53:58;14.00;;;7.40;;
60436;SDS011;46289;51.992;4.498;2023-04-02T02:56:06;14.55;;;7.15;;
60436;SDS011;46289;51.992;4.498;2023-04-02T02:58:14;13.23;;;7.10;;
60436;SDS011;46289;51.992;4.498;2023-04-02T03:00:27;15.02;;;7.47;;
60436;SDS011;46289;51.992;4.498;2023-04-02T03:02:33;12.52;;;6.82;;
60436;SDS011;46289;51.992;4.498;2023-04-02T03:04:44;15.25;;;7.85;;
60436;SDS011;46289;51.992;4.498;2023-04-02T03:06:53;17.67;;;6.30;;
60436;SDS011;46289;51.992;4.498;2023-04-02T03:09:06;14.27;;;6.95;;
60436;SDS011;46289;51.992;4.498;2023-04-02T03:11:31;12.00;;;6.80;;
60436;SDS011;46289;51.992;4.498;2023-04-02T03:13:40;15.77;;;7.05;;
60436;SDS011;46289;51.992;4.498;2023-04-02T03:15:56;16.23;;;6.95;;
60436;SDS011;46289;51.992;4.498;2023-04-02T03:18:13;15.93;;;8.18;;
60436;SDS011;46289;51.992;4.498;2023-04-02T03:20:30;12.73;;;7.30;;
60436;SDS011;46289;51.992;4.498;2023-04-02T03:22:42;19.15;;;7.88;;
60436;SDS011;46289;51.992;4.498;2023-04-02T03:24:54;15.77;;;7.65;;
60436;SDS011;46289;51.992;4.498;2023-04-02T03:27:05;15.77;;;8.15;;
60436;SDS011;46289;51.992;4.498;2023-04-02T03:29:16;17.20;;;7.88;;
60436;SDS011;46289;51.992;4.498;2023-04-02T03:31:30;14.80;;;7.32;;
60436;SDS011;46289;51.992;4.498;2023-04-02T03:33:41;18.58;;;7.63;;
60436;SDS011;46289;51.992;4.498;2023-04-02T03:35:52;17.52;;;8.63;;
60436;SDS011;46289;51.992;4.498;2023-04-02T03:38:02;14.55;;;7.45;;
60436;SDS011;46289;51.992;4.498;2023-04-02T03:40:14;21.05;;;8.75;;
60436;SDS011;46289;51.992;4.498;2023-04-02T03:42:24;13.55;;;7.00;;
60436;SDS011;46289;51.992;4.498;2023-04-02T03:44:31;19.25;;;8.30;;
60436;SDS011;46289;51.992;4.498;2023-04-02T03:46:47;15.27;;;8.10;;
60436;SDS011;46289;51.992;4.498;2023-04-02T03:48:58;13.70;;;7.40;;
60436;SDS011;46289;51.992;4.498;2023-04-02T03:51:06;15.65;;;7.60;;
60436;SDS011;46289;51.992;4.498;2023-04-02T03:53:17;15.30;;;7.97;;
60436;SDS011;46289;51.992;4.498;2023-04-02T03:55:27;16.02;;;8.02;;
60436;SDS011;46289;51.992;4.498;2023-04-02T03:57:41;15.43;;;7.80;;
60436;SDS011;46289;51.992;4.498;2023-04-02T03:59:53;15.55;;;7.32;;
60436;SDS011;46289;51.992;4.498;2023-04-02T04:02:09;16.45;;;8.10;;
60436;SDS011;46289;51.992;4.498;2023-04-02T04:04:19;16.27;;;7.88;;
60436;SDS011;46289;51.992;4.498;2023-04-02T04:06:29;15.80;;;8.27;;
60436;SDS011;46289;51.992;4.498;2023-04-02T04:08:38;12.52;;;6.38;;
60436;SDS011;46289;51.992;4.498;2023-04-02T04:10:49;15.13;;;7.55;;
60436;SDS011;46289;51.992;4.498;2023-04-02T04:12:59;16.48;;;7.60;;
60436;SDS011;46289;51.992;4.498;2023-04-02T04:15:07;16.30;;;8.02;;
60436;SDS011;46289;51.992;4.498;2023-04-02T04:17:23;16.00;;;7.15;;
60436;SDS011;46289;51.992;4.498;2023-04-02T04:19:37;14.00;;;6.63;;
60436;SDS011;46289;51.992;4.498;2023-04-02T04:21:46;14.25;;;7.63;;
60436;SDS011;46289;51.992;4.498;2023-04-02T04:23:59;15.90;;;7.47;;
60436;SDS011;46289;51.992;4.498;2023-04-02T04:26:12;19.00;;;8.27;;
60436;SDS011;46289;51.992;4.498;2023-04-02T04:28:26;15.15;;;7.35;;
60436;SDS011;46289;51.992;4.498;2023-04-02T04:30:47;15.90;;;7.25;;
60436;SDS011;46289;51.992;4.498;2023-04-02T04:32:59;14.30;;;6.93;;
60436;SDS011;46289;51.992;4.498;2023-04-02T04:35:14;12.25;;;6.10;;
60436;SDS011;46289;51.992;4.498;2023-04-02T04:37:25;16.48;;;7.95;;
60436;SDS011;46289;51.992;4.498;2023-04-02T04:39:39;13.65;;;7.18;;
60436;SDS011;46289;51.992;4.498;2023-04-02T04:41:47;14.35;;;8.05;;
60436;SDS011;46289;51.992;4.498;2023-04-02T04:43:53;13.52;;;6.45;;
60436;SDS011;46289;51.992;4.498;2023-04-02T04:46:07;13.45;;;7.38;;
60436;SDS011;46289;51.992;4.498;2023-04-02T04:48:18;14.07;;;7.55;;
60436;SDS011;46289;51.992;4.498;2023-04-02T04:50:30;16.25;;;7.50;;
60436;SDS011;46289;51.992;4.498;2023-04-02T04:52:39;16.77;;;7.90;;
60436;SDS011;46289;51.992;4.498;2023-04-02T04:54:46;16.63;;;7.63;;
60436;SDS011;46289;51.992;4.498;2023-04-02T04:56:54;12.32;;;6.45;;
60436;SDS011;46289;51.992;4.498;2023-04-02T04:59:11;14.70;;;7.07;;
60436;SDS011;46289;51.992;4.498;2023-04-02T05:01:22;13.15;;;6.28;;
60436;SDS011;46289;51.992;4.498;2023-04-02T05:03:36;19.67;;;8.60;;
60436;SDS011;46289;51.992;4.498;2023-04-02T05:05:48;13.55;;;6.55;;
60436;SDS011;46289;51.992;4.498;2023-04-02T05:07:55;12.32;;;6.38;;
60436;SDS011;46289;51.992;4.498;2023-04-02T05:10:06;13.82;;;6.72;;
60436;SDS011;46289;51.992;4.498;2023-04-02T05:12:20;13.27;;;6.70;;
60436;SDS011;46289;51.992;4.498;2023-04-02T05:14:39;15.50;;;6.80;;
60436;SDS011;46289;51.992;4.498;2023-04-02T05:16:50;15.88;;;7.40;;
60436;SDS011;46289;51.992;4.498;2023-04-02T05:19:08;16.15;;;6.82;;
60436;SDS011;46289;51.992;4.498;2023-04-02T05:21:18;10.93;;;6.00;;
60436;SDS011;46289;51.992;4.498;2023-04-02T05:23:33;13.77;;;7.40;;
60436;SDS011;46289;51.992;4.498;2023-04-02T05:25:52;15.48;;;6.35;;
60436;SDS011;46289;51.992;4.498;2023-04-02T05:28:04;14.05;;;6.25;;
60436;SDS011;46289;51.992;4.498;2023-04-02T05:30:27;12.98;;;7.30;;
60436;SDS011;46289;51.992;4.498;2023-04-02T05:32:52;15.75;;;8.15;;
60436;SDS011;46289;51.992;4.498;2023-04-02T05:35:03;13.90;;;8.00;;
60436;SDS011;46289;51.992;4.498;2023-04-02T05:37:12;14.98;;;8.00;;
60436;SDS011;46289;51.992;4.498;2023-04-02T05:39:21;14.85;;;6.97;;
60436;SDS011;46289;51.992;4.498;2023-04-02T05:41:28;13.43;;;8.10;;
60436;SDS011;46289;51.992;4.498;2023-04-02T05:43:39;13.05;;;6.82;;
60436;SDS011;46289;51.992;4.498;2023-04-02T05:45:51;13.82;;;7.78;;
60436;SDS011;46289;51.992;4.498;2023-04-02T05:47:58;13.32;;;6.47;;
60436;SDS011;46289;51.992;4.498;2023-04-02T05:50:22;14.15;;;7.15;;
60436;SDS011;46289;51.992;4.498;2023-04-02T05:52:33;13.57;;;7.30;;
60436;SDS011;46289;51.992;4.498;2023-04-02T05:54:43;12.48;;;6.28;;
60436;SDS011;46289;51.992;4.498;2023-04-02T05:56:52;15.30;;;7.57;;
60436;SDS011;46289;51.992;4.498;2023-04-02T05:59:05;11.23;;;6.75;;
60436;SDS011;46289;51.992;4.498;2023-04-02T06:01:16;12.85;;;6.88;;
60436;SDS011;46289;51.992;4.498;2023-04-02T06:03:30;15.63;;;6.70;;
60436;SDS011;46289;51.992;4.498;2023-04-02T06:05:48;11.52;;;6.00;;
60436;SDS011;46289;51.992;4.498;2023-04-02T06:07:56;9.93;;;6.03;;
60436;SDS011;46289;51.992;4.498;2023-04-02T06:10:10;12.75;;;6.28;;
60436;SDS011;46289;51.992;4.498;2023-04-02T06:12:25;13.00;;;5.93;;
60436;SDS011;46289;51.992;4.498;2023-04-02T06:14:34;10.73;;;5.63;;
60436;SDS011;46289;51.992;4.498;2023-04-02T06:16:42;11.98;;;6.07;;
60436;SDS011;46289;51.992;4.498;2023-04-02T06:18:49;14.52;;;6.32;;
60436;SDS011;46289;51.992;4.498;2023-04-02T06:20:56;15.52;;;7.95;;
60436;SDS011;46289;51.992;4.498;2023-04-02T06:23:03;15.23;;;7.10;;
60436;SDS011;46289;51.992;4.498;2023-04-02T06:25:17;16.35;;;6.90;;
60436;SDS011;46289;51.992;4.498;2023-04-02T06:27:28;15.32;;;6.25;;
60436;SDS011;46289;51.992;4.498;2023-04-02T06:29:41;12.40;;;6.65;;
60436;SDS011;46289;51.992;4.498;2023-04-02T06:31:49;12.10;;;6.80;;
60436;SDS011;46289;51.992;4.498;2023-04-02T06:34:00;14.98;;;6.38;;
60436;SDS011;46289;51.992;4.498;2023-04-02T06:36:11;15.02;;;7.10;;
60436;SDS011;46289;51.992;4.498;2023-04-02T06:38:17;10.85;;;6.03;;
60436;SDS011;46289;51.992;4.498;2023-04-02T06:40:31;11.93;;;6.47;;
60436;SDS011;46289;51.992;4.498;2023-04-02T06:42:44;8.82;;;4.95;;
60436;SDS011;46289;51.992;4.498;2023-04-02T06:44:56;12.10;;;7.20;;
60436;SDS011;46289;51.992;4.498;2023-04-02T06:47:03;13.32;;;5.88;;
60436;SDS011;46289;51.992;4.498;2023-04-02T06:49:17;13.27;;;6.13;;
60436;SDS011;46289;51.992;4.498;2023-04-02T06:51:29;11.80;;;6.22;;
60436;SDS011;46289;51.992;4.498;2023-04-02T06:53:44;11.80;;;5.72;;
60436;SDS011;46289;51.992;4.498;2023-04-02T06:55:51;11.45;;;6.03;;
60436;SDS011;46289;51.992;4.498;2023-04-02T06:58:00;11.43;;;4.90;;
60436;SDS011;46289;51.992;4.498;2023-04-02T07:00:08;13.23;;;6.50;;
60436;SDS011;46289;51.992;4.498;2023-04-02T07:02:34;10.35;;;5.85;;
60436;SDS011;46289;51.992;4.498;2023-04-02T07:04:45;11.40;;;6.75;;
60436;SDS011;46289;51.992;4.498;2023-04-02T07:06:53;9.30;;;5.50;;
60436;SDS011;46289;51.992;4.498;2023-04-02T07:08:58;10.30;;;4.93;;
60436;SDS011;46289;51.992;4.498;2023-04-02T07:11:06;10.23;;;5.05;;
60436;SDS011;46289;51.992;4.498;2023-04-02T07:13:22;8.27;;;5.38;;
60436;SDS011;46289;51.992;4.498;2023-04-02T07:15:28;6.72;;;4.78;;
60436;SDS011;46289;51.992;4.498;2023-04-02T07:17:34;9.73;;;5.57;;
60436;SDS011;46289;51.992;4.498;2023-04-02T07:19:41;13.13;;;6.32;;
60436;SDS011;46289;51.992;4.498;2023-04-02T07:21:50;11.80;;;5.30;;
60436;SDS011;46289;51.992;4.498;2023-04-02T07:23:57;10.77;;;5.32;;
60436;SDS011;46289;51.992;4.498;2023-04-02T07:26:03;8.82;;;4.82;;
60436;SDS011;46289;51.992;4.498;2023-04-02T07:28:11;11.10;;;5.15;;
60436;SDS011;46289;51.992;4.498;2023-04-02T07:30:19;11.25;;;5.45;;
60436;SDS011;46289;51.992;4.498;2023-04-02T07:32:26;8.52;;;5.05;;
60436;SDS011;46289;51.992;4.498;2023-04-02T07:34:31;7.10;;;4.85;;
60436;SDS011;46289;51.992;4.498;2023-04-02T07:36:41;11.13;;;4.85;;
60436;SDS011;46289;51.992;4.498;2023-04-02T07:38:50;8.27;;;5.20;;
60436;SDS011;46289;51.992;4.498;2023-04-02T07:41:03;10.63;;;4.28;;
60436;SDS011;46289;51.992;4.498;2023-04-02T07:43:12;8.48;;;5.47;;
60436;SDS011;46289;51.992;4.498;2023-04-02T07:45:18;11.55;;;5.85;;
60436;SDS011;46289;51.992;4.498;2023-04-02T07:47:23;10.52;;;5.47;;
60436;SDS011;46289;51.992;4.498;2023-04-02T07:49:29;11.25;;;5.40;;
60436;SDS011;46289;51.992;4.498;2023-04-02T07:51:35;13.05;;;5.50;;
60436;SDS011;46289;51.992;4.498;2023-04-02T07:53:41;9.73;;;5.00;;
60436;SDS011;46289;51.992;4.498;2023-04-02T07:55:56;8.57;;;5.15;;
60436;SDS011;46289;51.992;4.498;2023-04-02T07:58:07;13.32;;;5.40;;
60436;SDS011;46289;51.992;4.498;2023-04-02T08:00:17;12.20;;;5.43;;
60436;SDS011;46289;51.992;4.498;2023-04-02T08:02:27;7.40;;;3.75;;
60436;SDS011;46289;51.992;4.498;2023-04-02T08:04:38;8.70;;;4.97;;
60436;SDS011;46289;51.992;4.498;2023-04-02T08:06:43;10.88;;;4.63;;
60436;SDS011;46289;51.992;4.498;2023-04-02T08:08:50;12.68;;;4.78;;
60436;SDS011;46289;51.992;4.498;2023-04-02T08:11:00;8.55;;;4.18;;
60436;SDS011;46289;51.992;4.498;2023-04-02T08:13:05;5.30;;;3.40;;
60436;SDS011;46289;51.992;4.498;2023-04-02T08:15:12;7.75;;;4.22;;
60436;SDS011;46289;51.992;4.498;2023-04-02T08:17:26;11.20;;;5.22;;
60436;SDS011;46289;51.992;4.498;2023-04-02T08:19:31;9.93;;;4.90;;
60436;SDS011;46289;51.992;4.498;2023-04-02T08:21:55;9.68;;;4.47;;
60436;SDS011;46289;51.992;4.498;2023-04-02T08:24:04;7.70;;;3.67;;
60436;SDS011;46289;51.992;4.498;2023-04-02T08:26:23;6.90;;;3.85;;
60436;SDS011;46289;51.992;4.498;2023-04-02T08:28:29;10.68;;;4.63;;
60436;SDS011;46289;51.992;4.498;2023-04-02T08:30:47;9.15;;;4.78;;
60436;SDS011;46289;51.992;4.498;2023-04-02T08:32:57;13.32;;;5.38;;
60436;SDS011;46289;51.992;4.498;2023-04-02T08:35:06;7.78;;;4.13;;
60436;SDS011;46289;51.992;4.498;2023-04-02T08:37:16;8.05;;;4.78;;
60436;SDS011;46289;51.992;4.498;2023-04-02T08:39:23;8.45;;;5.43;;
60436;SDS011;46289;51.992;4.498;2023-04-02T08:41:40;8.68;;;5.85;;
60436;SDS011;46289;51.992;4.498;2023-04-02T08:44:00;9.52;;;4.97;;
60436;SDS011;46289;51.992;4.498;2023-04-02T08:46:21;10.88;;;4.65;;
60436;SDS011;46289;51.992;4.498;2023-04-02T08:48:30;14.43;;;5.68;;
60436;SDS011;46289;51.992;4.498;2023-04-02T08:50:41;8.38;;;4.30;;
60436;SDS011;46289;51.992;4.498;2023-04-02T08:52:56;8.80;;;4.97;;
60436;SDS011;46289;51.992;4.498;2023-04-02T08:55:09;7.55;;;4.15;;
60436;SDS011;46289;51.992;4.498;2023-04-02T08:57:37;12.10;;;5.32;;
60436;SDS011;46289;51.992;4.498;2023-04-02T08:59:57;7.95;;;4.72;;
60436;SDS011;46289;51.992;4.498;2023-04-02T09:02:25;7.45;;;3.83;;
60436;SDS011;46289;51.992;4.498;2023-04-02T09:04:39;7.40;;;4.47;;
60436;SDS011;46289;51.992;4.498;2023-04-02T09:06:46;10.15;;;5.03;;
60436;SDS011;46289;51.992;4.498;2023-04-02T09:09:01;7.68;;;4.38;;
60436;SDS011;46289;51.992;4.498;2023-04-02T09:11:18;10.13;;;5.40;;
60436;SDS011;46289;51.992;4.498;2023-04-02T09:13:31;9.98;;;4.45;;
60436;SDS011;46289;51.992;4.498;2023-04-02T09:15:38;8.25;;;4.45;;
60436;SDS011;46289;51.992;4.498;2023-04-02T09:17:43;7.57;;;4.13;;
60436;SDS011;46289;51.992;4.498;2023-04-02T09:19:56;7.63;;;4.68;;
60436;SDS011;46289;51.992;4.498;2023-04-02T09:22:06;9.57;;;4.47;;
60436;SDS011;46289;51.992;4.498;2023-04-02T09:24:24;8.63;;;4.70;;
60436;SDS011;46289;51.992;4.498;2023-04-02T09:26:31;7.60;;;4.68;;
60436;SDS011;46289;51.992;4.498;2023-04-02T09:28:40;12.75;;;5.18;;
60436;SDS011;46289;51.992;4.498;2023-04-02T09:30:52;10.50;;;4.13;;
60436;SDS011;46289;51.992;4.498;2023-04-02T09:33:05;8.50;;;4.78;;
60436;SDS011;46289;51.992;4.498;2023-04-02T09:35:12;8.50;;;4.15;;
60436;SDS011;46289;51.992;4.498;2023-04-02T09:37:36;7.97;;;4.40;;
60436;SDS011;46289;51.992;4.498;2023-04-02T09:39:42;10.18;;;4.88;;
60436;SDS011;46289;51.992;4.498;2023-04-02T09:41:47;6.57;;;4.00;;
60436;SDS011;46289;51.992;4.498;2023-04-02T09:44:17;9.52;;;4.30;;
60436;SDS011;46289;51.992;4.498;2023-04-02T09:46:24;5.45;;;3.65;;
60436;SDS011;46289;51.992;4.498;2023-04-02T09:48:29;10.32;;;4.45;;
60436;SDS011;46289;51.992;4.498;2023-04-02T09:50:36;9.35;;;4.20;;
60436;SDS011;46289;51.992;4.498;2023-04-02T09:52:44;9.88;;;4.72;;
60436;SDS011;46289;51.992;4.498;2023-04-02T09:57:22;7.18;;;4.03;;
60436;SDS011;46289;51.992;4.498;2023-04-02T09:59:31;10.35;;;4.60;;
60436;SDS011;46289;51.992;4.498;2023-04-02T10:01:38;16.65;;;3.95;;
60436;SDS011;46289;51.992;4.498;2023-04-02T10:03:45;11.27;;;4.95;;
60436;SDS011;46289;51.992;4.498;2023-04-02T10:06:03;7.93;;;4.18;;
60436;SDS011;46289;51.992;4.498;2023-04-02T10:08:15;8.15;;;4.28;;
60436;SDS011;46289;51.992;4.498;2023-04-02T10:10:25;7.70;;;4.32;;
60436;SDS011;46289;51.992;4.498;2023-04-02T10:12:36;9.40;;;4.20;;
60436;SDS011;46289;51.992;4.498;2023-04-02T10:14:53;10.80;;;4.65;;
60436;SDS011;46289;51.992;4.498;2023-04-02T10:17:02;6.60;;;4.10;;
60436;SDS011;46289;51.992;4.498;2023-04-02T10:19:22;8.93;;;4.88;;
60436;SDS011;46289;51.992;4.498;2023-04-02T10:21:36;9.40;;;5.07;;
60436;SDS011;46289;51.992;4.498;2023-04-02T10:23:45;9.55;;;5.22;;
60436;SDS011;46289;51.992;4.498;2023-04-02T10:25:59;8.15;;;5.03;;
60436;SDS011;46289;51.992;4.498;2023-04-02T10:28:25;9.23;;;4.95;;
60436;SDS011;46289;51.992;4.498;2023-04-02T10:30:53;10.98;;;5.68;;
60436;SDS011;46289;51.992;4.498;2023-04-02T10:33:09;9.45;;;5.07;;
60436;SDS011;46289;51.992;4.498;2023-04-02T10:35:33;11.15;;;4.88;;
60436;SDS011;46289;51.992;4.498;2023-04-02T10:40:52;7.18;;;4.35;;
60436;SDS011;46289;51.992;4.498;2023-04-02T10:46:03;10.80;;;4.70;;
60436;SDS011;46289;51.992;4.498;2023-04-02T10:48:14;10.45;;;4.85;;
60436;SDS011;46289;51.992;4.498;2023-04-02T10:50:30;9.60;;;4.95;;
60436;SDS011;46289;51.992;4.498;2023-04-02T10:52:42;7.82;;;4.72;;
60436;SDS011;46289;51.992;4.498;2023-04-02T10:54:58;8.07;;;4.38;;
60436;SDS011;46289;51.992;4.498;2023-04-02T10:57:12;7.43;;;4.47;;
60436;SDS011;46289;51.992;4.498;2023-04-02T10:59:26;8.48;;;4.65;;
60436;SDS011;46289;51.992;4.498;2023-04-02T11:01:41;11.65;;;5.60;;
60436;SDS011;46289;51.992;4.498;2023-04-02T11:03:50;7.60;;;4.22;;
60436;SDS011;46289;51.992;4.498;2023-04-02T11:06:04;7.65;;;5.15;;
60436;SDS011;46289;51.992;4.498;2023-04-02T11:08:17;7.43;;;4.20;;
60436;SDS011;46289;51.992;4.498;2023-04-02T11:10:26;8.32;;;4.45;;
60436;SDS011;46289;51.992;4.498;2023-04-02T11:12:38;8.90;;;4.25;;
60436;SDS011;46289;51.992;4.498;2023-04-02T11:14:46;8.90;;;4.95;;
60436;SDS011;46289;51.992;4.498;2023-04-02T11:16:57;9.55;;;4.60;;
60436;SDS011;46289;51.992;4.498;2023-04-02T11:19:15;10.90;;;4.82;;
60436;SDS011;46289;51.992;4.498;2023-04-02T11:21:36;8.05;;;4.13;;
60436;SDS011;46289;51.992;4.498;2023-04-02T11:23:59;11.40;;;4.18;;
60436;SDS011;46289;51.992;4.498;2023-04-02T11:28:45;7.18;;;3.70;;
60436;SDS011;46289;51.992;4.498;2023-04-02T11:30:52;8.13;;;3.47;;
60436;SDS011;46289;51.992;4.498;2023-04-02T11:38:47;6.63;;;3.70;;
60436;SDS011;46289;51.992;4.498;2023-04-02T11:41:12;6.00;;;4.07;;
60436;SDS011;46289;51.992;4.498;2023-04-02T11:43:48;9.50;;;3.70;;
60436;SDS011;46289;51.992;4.498;2023-04-02T11:45:55;6.35;;;3.50;;
60436;SDS011;46289;51.992;4.498;2023-04-02T11:48:25;5.60;;;3.30;;
60436;SDS011;46289;51.992;4.498;2023-04-02T11:50:33;6.93;;;3.50;;
60436;SDS011;46289;51.992;4.498;2023-04-02T11:52:51;8.23;;;3.50;;
60436;SDS011;46289;51.992;4.498;2023-04-02T11:57:43;4.55;;;2.90;;
60436;SDS011;46289;51.992;4.498;2023-04-02T12:00:04;3.60;;;2.72;;
60436;SDS011;46289;51.992;4.498;2023-04-02T12:02:24;8.60;;;3.50;;
60436;SDS011;46289;51.992;4.498;2023-04-02T12:04:43;5.35;;;3.17;;
60436;SDS011;46289;51.992;4.498;2023-04-02T12:07:04;8.65;;;3.13;;
60436;SDS011;46289;51.992;4.498;2023-04-02T12:09:44;8.52;;;3.13;;
60436;SDS011;46289;51.992;4.498;2023-04-02T12:11:56;7.82;;;3.25;;
60436;SDS011;46289;51.992;4.498;2023-04-02T12:14:31;7.50;;;4.00;;
60436;SDS011;46289;51.992;4.498;2023-04-02T12:17:17;4.05;;;2.97;;
60436;SDS011;46289;51.992;4.498;2023-04-02T12:19:32;10.23;;;3.65;;
60436;SDS011;46289;51.992;4.498;2023-04-02T12:21:46;5.57;;;3.08;;
60436;SDS011;46289;51.992;4.498;2023-04-02T12:23:57;8.30;;;3.40;;
60436;SDS011;46289;51.992;4.498;2023-04-02T12:26:24;5.70;;;3.08;;
60436;SDS011;46289;51.992;4.498;2023-04-02T12:28:39;6.53;;;3.15;;
60436;SDS011;46289;51.992;4.498;2023-04-02T12:30:50;5.90;;;2.75;;
60436;SDS011;46289;51.992;4.498;2023-04-02T12:33:32;5.47;;;2.75;;
60436;SDS011;46289;51.992;4.498;2023-04-02T12:36:15;5.43;;;2.80;;
60436;SDS011;46289;51.992;4.498;2023-04-02T12:38:24;8.75;;;3.15;;
60436;SDS011;46289;51.992;4.498;2023-04-02T12:40:52;7.32;;;2.90;;
60436;SDS011;46289;51.992;4.498;2023-04-02T12:48:57;7.60;;;2.85;;
60436;SDS011;46289;51.992;4.498;2023-04-02T12:51:26;6.57;;;2.88;;
60436;SDS011;46289;51.992;4.498;2023-04-02T12:53:33;6.95;;;2.80;;
60436;SDS011;46289;51.992;4.498;2023-04-02T12:56:03;9.82;;;3.67;;
60436;SDS011;46289;51.992;4.498;2023-04-02T12:58:25;8.38;;;2.97;;
60436;SDS011;46289;51.992;4.498;2023-04-02T13:00:43;8.77;;;2.75;;
60436;SDS011;46289;51.992;4.498;2023-04-02T13:03:17;8.15;;;3.00;;
60436;SDS011;46289;51.992;4.498;2023-04-02T13:05:49;6.88;;;2.95;;
60436;SDS011;46289;51.992;4.498;2023-04-02T13:08:21;7.40;;;2.60;;
60436;SDS011;46289;51.992;4.498;2023-04-02T13:10:34;6.60;;;2.83;;
60436;SDS011;46289;51.992;4.498;2023-04-02T13:13:01;8.73;;;3.25;;
60436;SDS011;46289;51.992;4.498;2023-04-02T13:15:22;9.48;;;3.03;;
60436;SDS011;46289;51.992;4.498;2023-04-02T13:18:00;7.72;;;3.50;;
60436;SDS011;46289;51.992;4.498;2023-04-02T13:20:26;6.32;;;3.10;;
60436;SDS011;46289;51.992;4.498;2023-04-02T13:26:47;6.10;;;3.90;;
60436;SDS011;46289;51.992;4.498;2023-04-02T13:29:26;8.63;;;3.15;;
60436;SDS011;46289;51.992;4.498;2023-04-02T13:32:10;5.30;;;2.88;;
60436;SDS011;46289;51.992;4.498;2023-04-02T13:34:58;8.85;;;3.40;;
60436;SDS011;46289;51.992;4.498;2023-04-02T13:37:52;9.10;;;2.92;;
60436;SDS011;46289;51.992;4.498;2023-04-02T13:40:21;7.50;;;3.10;;
60436;SDS011;46289;51.992;4.498;2023-04-02T13:43:05;5.43;;;2.55;;
60436;SDS011;46289;51.992;4.498;2023-04-02T13:45:47;5.93;;;2.83;;
60436;SDS011;46289;51.992;4.498;2023-04-02T13:48:36;7.47;;;3.17;;
60436;SDS011;46289;51.992;4.498;2023-04-02T13:51:12;5.90;;;3.30;;